sensor_id;sensor_type;location;lat;lon;timestamp;temperature;humidity
9167;DHT22;4618;48.818;9.088;2022-11-06T00:01:29;2.50;1.00
9167;DHT22;4618;48.818;9.088;2022-11-06T00:03:55;2.60;1.00
9167;DHT22;4618;48.818;9.088;2022-11-06T00:06:21;2.60;1.00
9167;DHT22;4618;48.818;9.088;2022-11-06T00:09:07;2.70;1.00
9167;DHT22;4618;48.818;9.088;2022-11-06T00:11:33;2.80;1.00
9167;DHT22;4618;48.818;9.088;2022-11-06T00:14:00;2.80;1.00
9167;DHT22;4618;48.818;9.088;2022-11-06T00:16:26;2.90;1.00
9167;DHT22;4618;48.818;9.088;2022-11-06T00:18:52;2.90;1.00
9167;DHT22;4618;48.818;9.088;2022-11-06T00:21:21;2.90;1.00
9167;DHT22;4618;48.818;9.088;2022-11-06T00:23:48;2.90;1.00
9167;DHT22;4618;48.818;9.088;2022-11-06T00:26:17;3.00;1.00
9167;DHT22;4618;48.818;9.088;2022-11-06T00:28:43;2.90;1.00
9167;DHT22;4618;48.818;9.088;2022-11-06T00:31:11;2.80;1.00
9167;DHT22;4618;48.818;9.088;2022-11-06T00:33:38;2.80;1.00
9167;DHT22;4618;48.818;9.088;2022-11-06T00:36:06;2.70;1.00
9167;DHT22;4618;48.818;9.088;2022-11-06T00:38:32;2.60;1.00
9167;DHT22;4618;48.818;9.088;2022-11-06T00:41:01;2.50;1.00
9167;DHT22;4618;48.818;9.088;2022-11-06T00:43:27;2.40;1.00
9167;DHT22;4618;48.818;9.088;2022-11-06T00:45:53;2.50;1.00
9167;DHT22;4618;48.818;9.088;2022-11-06T00:48:24;2.50;1.00
9167;DHT22;4618;48.818;9.088;2022-11-06T00:50:51;2.40;1.00
9167;DHT22;4618;48.818;9.088;2022-11-06T00:53:16;2.40;1.00
9167;DHT22;4618;48.818;9.088;2022-11-06T00:55:42;2.50;1.00
9167;DHT22;4618;48.818;9.088;2022-11-06T00:58:07;2.50;99.90
9167;DHT22;4618;48.818;9.088;2022-11-06T01:00:33;2.50;99.90
9167;DHT22;4618;48.818;9.088;2022-11-06T01:02:59;2.50;99.90
9167;DHT22;4618;48.818;9.088;2022-11-06T01:05:24;2.50;99.90
9167;DHT22;4618;48.818;9.088;2022-11-06T01:07:50;2.50;99.90
9167;DHT22;4618;48.818;9.088;2022-11-06T01:10:15;2.50;99.90
9167;DHT22;4618;48.818;9.088;2022-11-06T01:12:41;2.60;99.90
9167;DHT22;4618;48.818;9.088;2022-11-06T01:15:07;2.40;99.90
9167;DHT22;4618;48.818;9.088;2022-11-06T01:17:34;2.30;99.90
9167;DHT22;4618;48.818;9.088;2022-11-06T01:19:59;2.20;99.90
9167;DHT22;4618;48.818;9.088;2022-11-06T01:22:25;2.10;99.90
9167;DHT22;4618;48.818;9.088;2022-11-06T01:24:50;2.20;99.90
9167;DHT22;4618;48.818;9.088;2022-11-06T01:27:16;2.30;99.90
9167;DHT22;4618;48.818;9.088;2022-11-06T01:29:42;2.30;99.90
9167;DHT22;4618;48.818;9.088;2022-11-06T01:32:07;2.40;99.90
9167;DHT22;4618;48.818;9.088;2022-11-06T01:34:33;2.30;99.90
9167;DHT22;4618;48.818;9.088;2022-11-06T01:36:59;2.40;99.90
9167;DHT22;4618;48.818;9.088;2022-11-06T01:39:24;2.30;99.90
9167;DHT22;4618;48.818;9.088;2022-11-06T01:41:51;2.30;99.90
9167;DHT22;4618;48.818;9.088;2022-11-06T01:47:25;2.30;99.90
9167;DHT22;4618;48.818;9.088;2022-11-06T01:49:55;2.20;99.90
9167;DHT22;4618;48.818;9.088;2022-11-06T01:52:23;2.10;99.90
9167;DHT22;4618;48.818;9.088;2022-11-06T01:54:52;2.10;99.90
9167;DHT22;4618;48.818;9.088;2022-11-06T01:57:19;2.00;99.90
9167;DHT22;4618;48.818;9.088;2022-11-06T01:59:45;2.00;99.90
9167;DHT22;4618;48.818;9.088;2022-11-06T02:02:12;2.00;74.10
9167;DHT22;4618;48.818;9.088;2022-11-06T02:04:47;2.10;3.80
9167;DHT22;4618;48.818;9.088;2022-11-06T02:07:14;2.10;1.00
9167;DHT22;4618;48.818;9.088;2022-11-06T02:09:41;2.10;1.00
9167;DHT22;4618;48.818;9.088;2022-11-06T02:26:44;1.90;1.00
9167;DHT22;4618;48.818;9.088;2022-11-06T02:29:24;1.90;1.00
9167;DHT22;4618;48.818;9.088;2022-11-06T02:31:54;2.00;1.00
9167;DHT22;4618;48.818;9.088;2022-11-06T02:34:22;2.00;1.00
9167;DHT22;4618;48.818;9.088;2022-11-06T02:36:55;2.00;1.00
9167;DHT22;4618;48.818;9.088;2022-11-06T02:39:23;1.90;1.00
9167;DHT22;4618;48.818;9.088;2022-11-06T04:00:07;1.10;99.90
9167;DHT22;4618;48.818;9.088;2022-11-06T04:02:35;1.10;99.90
9167;DHT22;4618;48.818;9.088;2022-11-06T04:05:08;1.20;99.90
9167;DHT22;4618;48.818;9.088;2022-11-06T05:06:23;1.30;1.00
9167;DHT22;4618;48.818;9.088;2022-11-06T05:08:49;1.40;1.00
9167;DHT22;4618;48.818;9.088;2022-11-06T05:11:14;1.40;1.00
9167;DHT22;4618;48.818;9.088;2022-11-06T05:13:40;1.40;1.00
9167;DHT22;4618;48.818;9.088;2022-11-06T05:16:06;1.40;1.00
9167;DHT22;4618;48.818;9.088;2022-11-06T05:18:31;1.40;1.00
9167;DHT22;4618;48.818;9.088;2022-11-06T05:21:01;1.40;1.00
9167;DHT22;4618;48.818;9.088;2022-11-06T05:23:46;1.50;1.00
9167;DHT22;4618;48.818;9.088;2022-11-06T05:26:11;1.60;1.00
9167;DHT22;4618;48.818;9.088;2022-11-06T05:28:37;1.50;1.00
9167;DHT22;4618;48.818;9.088;2022-11-06T05:31:03;1.30;1.00
9167;DHT22;4618;48.818;9.088;2022-11-06T05:33:28;1.00;1.00
9167;DHT22;4618;48.818;9.088;2022-11-06T05:35:54;0.90;1.00
9167;DHT22;4618;48.818;9.088;2022-11-06T05:38:20;0.90;1.00
9167;DHT22;4618;48.818;9.088;2022-11-06T05:40:45;0.80;1.00
9167;DHT22;4618;48.818;9.088;2022-11-06T05:43:11;0.80;1.00
9167;DHT22;4618;48.818;9.088;2022-11-06T05:45:37;0.80;1.00
9167;DHT22;4618;48.818;9.088;2022-11-06T05:48:03;0.70;1.00
9167;DHT22;4618;48.818;9.088;2022-11-06T05:50:29;0.70;1.00
9167;DHT22;4618;48.818;9.088;2022-11-06T05:52:54;0.70;1.00
9167;DHT22;4618;48.818;9.088;2022-11-06T05:55:20;0.60;1.00
9167;DHT22;4618;48.818;9.088;2022-11-06T05:57:45;0.60;1.00
9167;DHT22;4618;48.818;9.088;2022-11-06T06:00:11;0.50;1.00
9167;DHT22;4618;48.818;9.088;2022-11-06T06:02:37;0.50;1.00
9167;DHT22;4618;48.818;9.088;2022-11-06T06:05:04;0.50;1.00
9167;DHT22;4618;48.818;9.088;2022-11-06T06:07:30;0.50;1.00
9167;DHT22;4618;48.818;9.088;2022-11-06T06:09:56;0.60;1.00
9167;DHT22;4618;48.818;9.088;2022-11-06T06:12:21;0.50;1.00
9167;DHT22;4618;48.818;9.088;2022-11-06T06:14:51;0.60;1.00
9167;DHT22;4618;48.818;9.088;2022-11-06T06:17:16;0.70;1.00
9167;DHT22;4618;48.818;9.088;2022-11-06T06:19:42;0.70;1.00
9167;DHT22;4618;48.818;9.088;2022-11-06T06:22:07;0.70;1.00
9167;DHT22;4618;48.818;9.088;2022-11-06T06:24:33;0.70;1.00
9167;DHT22;4618;48.818;9.088;2022-11-06T06:26:59;0.70;1.00
9167;DHT22;4618;48.818;9.088;2022-11-06T06:29:25;0.70;1.00
9167;DHT22;4618;48.818;9.088;2022-11-06T06:31:51;0.80;1.00
9167;DHT22;4618;48.818;9.088;2022-11-06T06:34:16;0.70;1.00
9167;DHT22;4618;48.818;9.088;2022-11-06T06:36:42;0.80;1.00
9167;DHT22;4618;48.818;9.088;2022-11-06T06:39:08;0.80;1.00
9167;DHT22;4618;48.818;9.088;2022-11-06T06:41:33;0.80;1.00
9167;DHT22;4618;48.818;9.088;2022-11-06T06:43:59;0.90;1.00
9167;DHT22;4618;48.818;9.088;2022-11-06T06:46:24;0.90;1.00
9167;DHT22;4618;48.818;9.088;2022-11-06T06:48:50;0.90;1.00
9167;DHT22;4618;48.818;9.088;2022-11-06T06:51:15;0.80;1.00
9167;DHT22;4618;48.818;9.088;2022-11-06T06:53:41;0.80;1.00
9167;DHT22;4618;48.818;9.088;2022-11-06T06:56:07;0.80;1.00
9167;DHT22;4618;48.818;9.088;2022-11-06T06:58:32;0.80;1.00
9167;DHT22;4618;48.818;9.088;2022-11-06T07:01:03;0.80;1.00
9167;DHT22;4618;48.818;9.088;2022-11-06T07:03:29;0.70;1.00
9167;DHT22;4618;48.818;9.088;2022-11-06T07:05:57;0.80;1.00
9167;DHT22;4618;48.818;9.088;2022-11-06T07:08:24;0.90;1.00
9167;DHT22;4618;48.818;9.088;2022-11-06T07:10:49;1.00;1.00
9167;DHT22;4618;48.818;9.088;2022-11-06T07:13:15;1.10;1.00
9167;DHT22;4618;48.818;9.088;2022-11-06T07:15:41;1.00;1.00
9167;DHT22;4618;48.818;9.088;2022-11-06T07:18:06;1.10;1.00
9167;DHT22;4618;48.818;9.088;2022-11-06T07:20:33;1.20;1.00
9167;DHT22;4618;48.818;9.088;2022-11-06T07:23:03;1.30;1.00
9167;DHT22;4618;48.818;9.088;2022-11-06T07:25:29;1.40;1.00
9167;DHT22;4618;48.818;9.088;2022-11-06T07:27:54;1.50;1.00
9167;DHT22;4618;48.818;9.088;2022-11-06T07:30:24;1.50;1.00
9167;DHT22;4618;48.818;9.088;2022-11-06T07:32:49;1.40;1.00
9167;DHT22;4618;48.818;9.088;2022-11-06T07:35:15;1.50;1.00
9167;DHT22;4618;48.818;9.088;2022-11-06T07:37:40;1.50;1.00
9167;DHT22;4618;48.818;9.088;2022-11-06T07:40:07;1.60;1.00
9167;DHT22;4618;48.818;9.088;2022-11-06T07:42:33;1.70;1.00
9167;DHT22;4618;48.818;9.088;2022-11-06T07:44:58;1.90;1.00
9167;DHT22;4618;48.818;9.088;2022-11-06T07:47:24;2.10;1.00
9167;DHT22;4618;48.818;9.088;2022-11-06T07:49:52;2.20;1.00
9167;DHT22;4618;48.818;9.088;2022-11-06T07:52:17;2.40;1.00
9167;DHT22;4618;48.818;9.088;2022-11-06T07:54:43;2.40;1.00
9167;DHT22;4618;48.818;9.088;2022-11-06T07:57:08;2.60;1.00
9167;DHT22;4618;48.818;9.088;2022-11-06T07:59:34;2.70;1.00
9167;DHT22;4618;48.818;9.088;2022-11-06T08:01:59;2.80;1.00
9167;DHT22;4618;48.818;9.088;2022-11-06T08:04:25;2.90;1.00
9167;DHT22;4618;48.818;9.088;2022-11-06T08:06:51;3.00;1.00
9167;DHT22;4618;48.818;9.088;2022-11-06T08:09:16;3.10;1.00
9167;DHT22;4618;48.818;9.088;2022-11-06T08:11:42;3.30;1.00
9167;DHT22;4618;48.818;9.088;2022-11-06T08:14:07;3.40;1.00
9167;DHT22;4618;48.818;9.088;2022-11-06T08:16:35;3.50;1.00
9167;DHT22;4618;48.818;9.088;2022-11-06T08:19:00;3.50;1.00
9167;DHT22;4618;48.818;9.088;2022-11-06T08:21:26;3.60;1.00
9167;DHT22;4618;48.818;9.088;2022-11-06T08:23:51;3.70;26.30
9167;DHT22;4618;48.818;9.088;2022-11-06T08:26:17;3.80;93.00
9167;DHT22;4618;48.818;9.088;2022-11-06T08:28:43;4.00;99.90
9167;DHT22;4618;48.818;9.088;2022-11-06T08:31:09;4.10;99.90
9167;DHT22;4618;48.818;9.088;2022-11-06T08:33:35;4.20;99.90
9167;DHT22;4618;48.818;9.088;2022-11-06T08:36:03;4.20;99.90
9167;DHT22;4618;48.818;9.088;2022-11-06T08:38:29;4.40;99.90
9167;DHT22;4618;48.818;9.088;2022-11-06T08:40:55;4.60;1.00
9167;DHT22;4618;48.818;9.088;2022-11-06T08:43:20;4.80;1.00
9167;DHT22;4618;48.818;9.088;2022-11-06T08:45:50;5.30;1.00
9167;DHT22;4618;48.818;9.088;2022-11-06T08:48:17;6.30;1.00
9167;DHT22;4618;48.818;9.088;2022-11-06T08:50:42;7.20;99.90
9167;DHT22;4618;48.818;9.088;2022-11-06T08:53:08;8.50;1.00
9167;DHT22;4618;48.818;9.088;2022-11-06T08:55:35;8.90;99.90
9167;DHT22;4618;48.818;9.088;2022-11-06T08:58:01;10.40;1.00
9167;DHT22;4618;48.818;9.088;2022-11-06T09:00:28;10.80;1.00
9167;DHT22;4618;48.818;9.088;2022-11-06T09:03:02;10.50;1.00
9167;DHT22;4618;48.818;9.088;2022-11-06T09:05:28;11.80;1.00
9167;DHT22;4618;48.818;9.088;2022-11-06T09:07:56;12.70;1.00
9167;DHT22;4618;48.818;9.088;2022-11-06T09:10:22;13.70;99.90
9167;DHT22;4618;48.818;9.088;2022-11-06T09:15:13;14.80;1.00
9167;DHT22;4618;48.818;9.088;2022-11-06T09:17:43;15.50;1.00
9167;DHT22;4618;48.818;9.088;2022-11-06T09:20:10;16.50;1.00
9167;DHT22;4618;48.818;9.088;2022-11-06T09:22:35;17.60;99.90
9167;DHT22;4618;48.818;9.088;2022-11-06T09:25:01;17.20;1.00
9167;DHT22;4618;48.818;9.088;2022-11-06T09:27:27;16.20;99.90
9167;DHT22;4618;48.818;9.088;2022-11-06T09:29:53;15.30;1.00
9167;DHT22;4618;48.818;9.088;2022-11-06T09:32:18;15.50;1.00
9167;DHT22;4618;48.818;9.088;2022-11-06T09:34:44;16.30;99.90
9167;DHT22;4618;48.818;9.088;2022-11-06T09:37:09;17.50;1.00
9167;DHT22;4618;48.818;9.088;2022-11-06T09:39:35;18.60;99.90
9167;DHT22;4618;48.818;9.088;2022-11-06T09:42:24;17.80;90.70
9167;DHT22;4618;48.818;9.088;2022-11-06T09:45:11;19.10;23.80
9167;DHT22;4618;48.818;9.088;2022-11-06T09:47:42;20.20;1.00
9167;DHT22;4618;48.818;9.088;2022-11-06T09:50:20;20.90;1.00
9167;DHT22;4618;48.818;9.088;2022-11-06T09:52:51;19.50;1.00
9167;DHT22;4618;48.818;9.088;2022-11-06T09:55:32;19.20;1.00
9167;DHT22;4618;48.818;9.088;2022-11-06T09:58:19;19.80;1.00
9167;DHT22;4618;48.818;9.088;2022-11-06T10:00:47;19.70;1.00
9167;DHT22;4618;48.818;9.088;2022-11-06T10:03:17;20.10;1.00
9167;DHT22;4618;48.818;9.088;2022-11-06T10:05:44;20.50;1.00
9167;DHT22;4618;48.818;9.088;2022-11-06T10:08:44;20.90;1.00
9167;DHT22;4618;48.818;9.088;2022-11-06T10:11:06;20.60;1.00
9167;DHT22;4618;48.818;9.088;2022-11-06T10:19:24;20.60;1.00
9167;DHT22;4618;48.818;9.088;2022-11-06T10:27:14;19.80;1.00
9167;DHT22;4618;48.818;9.088;2022-11-06T10:35:26;22.10;1.00
9167;DHT22;4618;48.818;9.088;2022-11-06T10:38:02;20.40;1.00
9167;DHT22;4618;48.818;9.088;2022-11-06T10:40:31;18.70;1.00
9167;DHT22;4618;48.818;9.088;2022-11-06T10:45:55;17.00;1.00
9167;DHT22;4618;48.818;9.088;2022-11-06T10:48:28;16.70;1.00
9167;DHT22;4618;48.818;9.088;2022-11-06T10:58:47;14.70;1.00
9167;DHT22;4618;48.818;9.088;2022-11-06T11:01:13;14.30;1.00
9167;DHT22;4618;48.818;9.088;2022-11-06T11:03:42;13.70;99.90
9167;DHT22;4618;48.818;9.088;2022-11-06T11:06:08;13.20;99.90
9167;DHT22;4618;48.818;9.088;2022-11-06T11:08:50;13.40;1.00
9167;DHT22;4618;48.818;9.088;2022-11-06T11:11:25;13.20;99.90
9167;DHT22;4618;48.818;9.088;2022-11-06T11:16:31;13.40;1.00
9167;DHT22;4618;48.818;9.088;2022-11-06T11:19:15;13.40;99.90
9167;DHT22;4618;48.818;9.088;2022-11-06T11:21:52;13.70;1.00
9167;DHT22;4618;48.818;9.088;2022-11-06T11:24:18;14.80;99.90
9167;DHT22;4618;48.818;9.088;2022-11-06T11:26:47;15.50;58.40
9167;DHT22;4618;48.818;9.088;2022-11-06T11:29:22;16.20;1.00
9167;DHT22;4618;48.818;9.088;2022-11-06T11:31:54;16.60;1.00
9167;DHT22;4618;48.818;9.088;2022-11-06T11:34:26;17.30;1.00
9167;DHT22;4618;48.818;9.088;2022-11-06T11:37:04;16.80;1.00
9167;DHT22;4618;48.818;9.088;2022-11-06T11:39:31;17.20;1.00
9167;DHT22;4618;48.818;9.088;2022-11-06T11:44:45;18.10;1.00
9167;DHT22;4618;48.818;9.088;2022-11-06T11:47:22;18.50;1.00
9167;DHT22;4618;48.818;9.088;2022-11-06T11:49:47;18.60;1.00
9167;DHT22;4618;48.818;9.088;2022-11-06T11:52:18;18.90;1.00
9167;DHT22;4618;48.818;9.088;2022-11-06T11:54:49;18.70;1.00
9167;DHT22;4618;48.818;9.088;2022-11-06T11:57:21;18.40;1.00
9167;DHT22;4618;48.818;9.088;2022-11-06T12:00:00;18.70;1.00
9167;DHT22;4618;48.818;9.088;2022-11-06T12:02:42;18.20;1.00
9167;DHT22;4618;48.818;9.088;2022-11-06T12:05:17;18.00;1.00
9167;DHT22;4618;48.818;9.088;2022-11-06T12:07:54;17.70;1.00
9167;DHT22;4618;48.818;9.088;2022-11-06T12:10:42;17.50;1.00
9167;DHT22;4618;48.818;9.088;2022-11-06T12:18:41;16.90;1.00
9167;DHT22;4618;48.818;9.088;2022-11-06T12:21:41;16.70;1.00
9167;DHT22;4618;48.818;9.088;2022-11-06T12:24:09;17.20;1.00
9167;DHT22;4618;48.818;9.088;2022-11-06T12:27:10;17.20;1.00
9167;DHT22;4618;48.818;9.088;2022-11-06T12:29:56;17.30;1.00
9167;DHT22;4618;48.818;9.088;2022-11-06T12:35:33;17.10;1.00
9167;DHT22;4618;48.818;9.088;2022-11-06T12:39:09;16.00;1.00
9167;DHT22;4618;48.818;9.088;2022-11-06T12:41:29;15.30;1.00
9167;DHT22;4618;48.818;9.088;2022-11-06T12:43:56;14.40;1.00
9167;DHT22;4618;48.818;9.088;2022-11-06T12:54:55;12.90;1.00
9167;DHT22;4618;48.818;9.088;2022-11-06T12:58:00;12.90;1.00
9167;DHT22;4618;48.818;9.088;2022-11-06T13:09:38;13.90;1.00
9167;DHT22;4618;48.818;9.088;2022-11-06T13:12:19;14.40;42.20
9167;DHT22;4618;48.818;9.088;2022-11-06T13:15:01;14.50;47.80
9167;DHT22;4618;48.818;9.088;2022-11-06T13:17:29;15.00;3.00
9167;DHT22;4618;48.818;9.088;2022-11-06T13:19:57;14.30;34.20
9167;DHT22;4618;48.818;9.088;2022-11-06T13:22:29;13.90;99.90
9167;DHT22;4618;48.818;9.088;2022-11-06T13:28:18;13.20;1.00
9167;DHT22;4618;48.818;9.088;2022-11-06T13:30:45;13.10;99.90
9167;DHT22;4618;48.818;9.088;2022-11-06T13:33:27;12.80;1.00
9167;DHT22;4618;48.818;9.088;2022-11-06T13:35:54;12.40;1.00
9167;DHT22;4618;48.818;9.088;2022-11-06T13:38:28;12.30;1.00
9167;DHT22;4618;48.818;9.088;2022-11-06T13:41:01;12.10;99.90
9167;DHT22;4618;48.818;9.088;2022-11-06T13:43:47;12.20;99.90
9167;DHT22;4618;48.818;9.088;2022-11-06T13:49:33;11.90;99.90
9167;DHT22;4618;48.818;9.088;2022-11-06T13:53:04;11.80;1.00
9167;DHT22;4618;48.818;9.088;2022-11-06T13:55:25;11.60;1.00
9167;DHT22;4618;48.818;9.088;2022-11-06T13:58:17;11.80;1.00
9167;DHT22;4618;48.818;9.088;2022-11-06T14:06:21;11.50;1.00
9167;DHT22;4618;48.818;9.088;2022-11-06T14:09:04;11.50;1.00
9167;DHT22;4618;48.818;9.088;2022-11-06T14:11:35;11.50;1.00
9167;DHT22;4618;48.818;9.088;2022-11-06T14:14:10;11.40;13.90
9167;DHT22;4618;48.818;9.088;2022-11-06T14:16:39;11.40;1.00
9167;DHT22;4618;48.818;9.088;2022-11-06T14:24:06;11.30;85.80
9167;DHT22;4618;48.818;9.088;2022-11-06T14:26:38;11.30;99.90
9167;DHT22;4618;48.818;9.088;2022-11-06T14:34:38;10.90;1.00
9167;DHT22;4618;48.818;9.088;2022-11-06T14:42:36;10.70;1.00
9167;DHT22;4618;48.818;9.088;2022-11-06T14:45:15;10.60;1.00
9167;DHT22;4618;48.818;9.088;2022-11-06T14:50:26;10.50;1.00
9167;DHT22;4618;48.818;9.088;2022-11-06T14:53:05;10.40;99.90
9167;DHT22;4618;48.818;9.088;2022-11-06T14:55:54;10.30;99.90
9167;DHT22;4618;48.818;9.088;2022-11-06T14:58:25;10.20;99.90
9167;DHT22;4618;48.818;9.088;2022-11-06T15:13:55;9.90;1.00
9167;DHT22;4618;48.818;9.088;2022-11-06T15:16:22;10.00;1.00
9167;DHT22;4618;48.818;9.088;2022-11-06T15:18:50;9.90;1.00
9167;DHT22;4618;48.818;9.088;2022-11-06T15:21:21;9.90;1.00
9167;DHT22;4618;48.818;9.088;2022-11-06T15:24:00;9.70;1.00
9167;DHT22;4618;48.818;9.088;2022-11-06T15:26:32;9.60;99.90
9167;DHT22;4618;48.818;9.088;2022-11-06T15:31:35;9.30;1.00
9167;DHT22;4618;48.818;9.088;2022-11-06T15:34:02;9.10;1.00
9167;DHT22;4618;48.818;9.088;2022-11-06T15:36:36;9.00;99.90
9167;DHT22;4618;48.818;9.088;2022-11-06T15:41:52;8.90;1.00
9167;DHT22;4618;48.818;9.088;2022-11-06T15:44:19;8.90;1.00
9167;DHT22;4618;48.818;9.088;2022-11-06T15:46:56;8.80;1.00
9167;DHT22;4618;48.818;9.088;2022-11-06T15:49:22;8.80;1.00
9167;DHT22;4618;48.818;9.088;2022-11-06T15:52:00;8.70;1.00
9167;DHT22;4618;48.818;9.088;2022-11-06T15:56:56;8.60;32.10
9167;DHT22;4618;48.818;9.088;2022-11-06T15:59:21;8.60;37.10
9167;DHT22;4618;48.818;9.088;2022-11-06T16:01:48;8.60;99.90
9167;DHT22;4618;48.818;9.088;2022-11-06T16:04:18;8.60;99.90
9167;DHT22;4618;48.818;9.088;2022-11-06T16:06:45;8.60;99.90
9167;DHT22;4618;48.818;9.088;2022-11-06T16:09:22;8.60;99.90
9167;DHT22;4618;48.818;9.088;2022-11-06T16:11:50;8.50;1.00
9167;DHT22;4618;48.818;9.088;2022-11-06T16:14:17;8.30;99.90
9167;DHT22;4618;48.818;9.088;2022-11-06T16:16:50;8.10;99.90
9167;DHT22;4618;48.818;9.088;2022-11-06T16:19:27;8.20;1.00
9167;DHT22;4618;48.818;9.088;2022-11-06T16:21:59;8.10;1.00
9167;DHT22;4618;48.818;9.088;2022-11-06T16:24:30;8.10;1.00
9167;DHT22;4618;48.818;9.088;2022-11-06T16:26:58;8.10;1.00
9167;DHT22;4618;48.818;9.088;2022-11-06T16:29:28;8.10;1.00
9167;DHT22;4618;48.818;9.088;2022-11-06T16:32:15;8.10;1.00
9167;DHT22;4618;48.818;9.088;2022-11-06T16:34:43;8.10;1.00
9167;DHT22;4618;48.818;9.088;2022-11-06T16:39:51;8.10;1.00
9167;DHT22;4618;48.818;9.088;2022-11-06T16:42:34;8.10;1.00
9167;DHT22;4618;48.818;9.088;2022-11-06T16:45:19;8.20;99.90
9167;DHT22;4618;48.818;9.088;2022-11-06T16:50:43;8.30;1.00
9167;DHT22;4618;48.818;9.088;2022-11-06T16:53:10;8.30;1.00
9167;DHT22;4618;48.818;9.088;2022-11-06T16:55:36;8.30;1.00
9167;DHT22;4618;48.818;9.088;2022-11-06T16:58:02;8.30;26.10
9167;DHT22;4618;48.818;9.088;2022-11-06T17:00:30;8.20;72.50
9167;DHT22;4618;48.818;9.088;2022-11-06T17:03:07;8.30;26.10
9167;DHT22;4618;48.818;9.088;2022-11-06T17:05:53;8.30;1.00
9167;DHT22;4618;48.818;9.088;2022-11-06T17:08:42;8.30;1.00
9167;DHT22;4618;48.818;9.088;2022-11-06T17:11:15;8.40;1.00
9167;DHT22;4618;48.818;9.088;2022-11-06T17:13:45;8.40;99.90
9167;DHT22;4618;48.818;9.088;2022-11-06T17:16:17;8.50;1.00
9167;DHT22;4618;48.818;9.088;2022-11-06T17:18:43;8.50;1.00
9167;DHT22;4618;48.818;9.088;2022-11-06T17:21:14;8.50;1.00
9167;DHT22;4618;48.818;9.088;2022-11-06T17:23:41;8.50;1.00
9167;DHT22;4618;48.818;9.088;2022-11-06T17:26:26;8.60;1.00
9167;DHT22;4618;48.818;9.088;2022-11-06T17:28:57;8.60;1.00
9167;DHT22;4618;48.818;9.088;2022-11-06T17:31:23;8.60;99.90
9167;DHT22;4618;48.818;9.088;2022-11-06T17:33:50;8.70;99.90
9167;DHT22;4618;48.818;9.088;2022-11-06T17:36:21;8.60;99.90
9167;DHT22;4618;48.818;9.088;2022-11-06T17:38:49;8.60;1.00
9167;DHT22;4618;48.818;9.088;2022-11-06T17:41:16;8.70;99.90
9167;DHT22;4618;48.818;9.088;2022-11-06T17:46:27;9.00;99.90
9167;DHT22;4618;48.818;9.088;2022-11-06T17:48:54;9.00;99.90
9167;DHT22;4618;48.818;9.088;2022-11-06T17:51:20;9.10;99.90
9167;DHT22;4618;48.818;9.088;2022-11-06T17:54:04;8.90;99.90
9167;DHT22;4618;48.818;9.088;2022-11-06T17:56:30;8.90;99.90
9167;DHT22;4618;48.818;9.088;2022-11-06T17:58:55;8.90;99.90
9167;DHT22;4618;48.818;9.088;2022-11-06T18:01:21;8.90;1.00
9167;DHT22;4618;48.818;9.088;2022-11-06T18:03:46;8.80;1.00
9167;DHT22;4618;48.818;9.088;2022-11-06T18:06:13;8.80;1.00
9167;DHT22;4618;48.818;9.088;2022-11-06T18:08:39;8.70;1.00
9167;DHT22;4618;48.818;9.088;2022-11-06T18:11:06;8.80;1.00
9167;DHT22;4618;48.818;9.088;2022-11-06T18:16:03;8.70;99.90
9167;DHT22;4618;48.818;9.088;2022-11-06T18:18:28;8.70;1.00
9167;DHT22;4618;48.818;9.088;2022-11-06T18:20:54;8.70;1.00
9167;DHT22;4618;48.818;9.088;2022-11-06T18:23:20;8.70;1.00
9167;DHT22;4618;48.818;9.088;2022-11-06T18:25:56;8.80;99.90
9167;DHT22;4618;48.818;9.088;2022-11-06T18:28:22;9.00;1.00
9167;DHT22;4618;48.818;9.088;2022-11-06T18:30:48;9.10;1.00
9167;DHT22;4618;48.818;9.088;2022-11-06T18:33:14;9.10;99.90
9167;DHT22;4618;48.818;9.088;2022-11-06T18:35:40;9.10;1.00
9167;DHT22;4618;48.818;9.088;2022-11-06T18:38:06;9.10;99.90
9167;DHT22;4618;48.818;9.088;2022-11-06T18:40:32;9.30;1.00
9167;DHT22;4618;48.818;9.088;2022-11-06T18:42:57;9.50;1.00
9167;DHT22;4618;48.818;9.088;2022-11-06T18:45:23;9.60;1.00
9167;DHT22;4618;48.818;9.088;2022-11-06T18:47:49;9.60;1.00
9167;DHT22;4618;48.818;9.088;2022-11-06T18:50:15;9.60;1.00
9167;DHT22;4618;48.818;9.088;2022-11-06T18:52:41;9.60;1.00
9167;DHT22;4618;48.818;9.088;2022-11-06T18:55:07;9.60;1.00
9167;DHT22;4618;48.818;9.088;2022-11-06T18:57:32;9.70;1.00
9167;DHT22;4618;48.818;9.088;2022-11-06T18:59:58;9.80;1.00
9167;DHT22;4618;48.818;9.088;2022-11-06T19:02:23;9.80;1.00
9167;DHT22;4618;48.818;9.088;2022-11-06T19:04:49;9.70;1.00
9167;DHT22;4618;48.818;9.088;2022-11-06T19:07:14;9.70;1.00
9167;DHT22;4618;48.818;9.088;2022-11-06T19:09:40;9.70;1.00
9167;DHT22;4618;48.818;9.088;2022-11-06T19:12:06;9.70;1.00
9167;DHT22;4618;48.818;9.088;2022-11-06T19:14:31;9.60;1.00
9167;DHT22;4618;48.818;9.088;2022-11-06T19:16:57;9.60;1.00
9167;DHT22;4618;48.818;9.088;2022-11-06T19:19:22;9.50;1.00
9167;DHT22;4618;48.818;9.088;2022-11-06T19:21:48;9.40;28.80
9167;DHT22;4618;48.818;9.088;2022-11-06T19:24:14;9.40;99.90
9167;DHT22;4618;48.818;9.088;2022-11-06T19:26:40;9.40;4.90
9167;DHT22;4618;48.818;9.088;2022-11-06T19:29:07;9.50;1.00
9167;DHT22;4618;48.818;9.088;2022-11-06T19:31:34;9.50;1.00
9167;DHT22;4618;48.818;9.088;2022-11-06T19:34:03;9.50;1.00
9167;DHT22;4618;48.818;9.088;2022-11-06T19:36:30;9.40;1.00
9167;DHT22;4618;48.818;9.088;2022-11-06T19:38:56;9.50;1.00
9167;DHT22;4618;48.818;9.088;2022-11-06T19:41:24;9.50;1.00
9167;DHT22;4618;48.818;9.088;2022-11-06T19:43:50;9.60;1.00
9167;DHT22;4618;48.818;9.088;2022-11-06T19:46:15;9.60;1.00
9167;DHT22;4618;48.818;9.088;2022-11-06T19:48:44;9.60;1.00
9167;DHT22;4618;48.818;9.088;2022-11-06T19:51:12;9.60;99.90
9167;DHT22;4618;48.818;9.088;2022-11-06T19:53:39;9.60;99.90
9167;DHT22;4618;48.818;9.088;2022-11-06T19:56:06;9.60;99.90
9167;DHT22;4618;48.818;9.088;2022-11-06T19:58:33;9.60;99.90
9167;DHT22;4618;48.818;9.088;2022-11-06T20:00:59;9.50;99.90
9167;DHT22;4618;48.818;9.088;2022-11-06T20:03:24;9.60;99.90
9167;DHT22;4618;48.818;9.088;2022-11-06T20:05:51;9.50;99.90
9167;DHT22;4618;48.818;9.088;2022-11-06T20:08:17;9.60;99.90
9167;DHT22;4618;48.818;9.088;2022-11-06T20:10:43;9.60;99.90
9167;DHT22;4618;48.818;9.088;2022-11-06T20:13:08;9.50;99.90
9167;DHT22;4618;48.818;9.088;2022-11-06T20:15:34;9.50;99.90
9167;DHT22;4618;48.818;9.088;2022-11-06T20:18:00;9.40;99.90
9167;DHT22;4618;48.818;9.088;2022-11-06T20:20:26;9.40;99.90
9167;DHT22;4618;48.818;9.088;2022-11-06T20:22:52;9.40;1.00
9167;DHT22;4618;48.818;9.088;2022-11-06T20:25:18;9.30;1.00
9167;DHT22;4618;48.818;9.088;2022-11-06T20:27:44;9.30;1.00
9167;DHT22;4618;48.818;9.088;2022-11-06T20:30:10;9.30;1.00
9167;DHT22;4618;48.818;9.088;2022-11-06T20:32:36;9.30;99.90
9167;DHT22;4618;48.818;9.088;2022-11-06T20:35:02;9.30;1.00
9167;DHT22;4618;48.818;9.088;2022-11-06T20:37:28;9.40;99.90
9167;DHT22;4618;48.818;9.088;2022-11-06T20:39:53;9.40;99.90
9167;DHT22;4618;48.818;9.088;2022-11-06T20:42:19;9.30;99.90
9167;DHT22;4618;48.818;9.088;2022-11-06T20:44:44;9.30;99.90
9167;DHT22;4618;48.818;9.088;2022-11-06T20:47:10;9.30;99.90
9167;DHT22;4618;48.818;9.088;2022-11-06T20:49:36;9.30;1.00
9167;DHT22;4618;48.818;9.088;2022-11-06T20:52:03;9.10;1.00
9167;DHT22;4618;48.818;9.088;2022-11-06T20:54:29;9.00;1.00
9167;DHT22;4618;48.818;9.088;2022-11-06T20:56:54;9.00;1.00
9167;DHT22;4618;48.818;9.088;2022-11-06T20:59:20;9.00;1.00
9167;DHT22;4618;48.818;9.088;2022-11-06T21:01:46;9.10;1.00
9167;DHT22;4618;48.818;9.088;2022-11-06T21:04:12;9.20;1.00
9167;DHT22;4618;48.818;9.088;2022-11-06T21:06:38;9.30;99.90
9167;DHT22;4618;48.818;9.088;2022-11-06T21:09:05;9.50;99.90
9167;DHT22;4618;48.818;9.088;2022-11-06T21:11:30;9.50;99.90
9167;DHT22;4618;48.818;9.088;2022-11-06T21:13:56;9.70;99.90
9167;DHT22;4618;48.818;9.088;2022-11-06T21:16:24;9.70;99.90